Time;durP1;ratioP1;P1;durP2;ratioP2;P2;SDS_P1;SDS_P2;PMS_P1;PMS_P2;Temp;Humidity;BMP_temperature;BMP_pressure;BME280_temperature;BME280_humidity;BME280_pressure;Samples;Min_cycle;Max_cycle;Signal;HPM_P1;HPM_P2
2023/07/25 00:00:54;;;;;;;6.07;2.20;;;14.10;99.90;;;;;;5008320;28;20045;-51
2023/07/25 00:03:19;;;;;;;6.93;2.00;;;14.00;99.90;;;;;;5004738;28;20520;-53
2023/07/25 00:05:45;;;;;;;7.68;2.20;;;14.00;99.90;;;;;;4988232;28;20045;-52
2023/07/25 00:08:11;;;;;;;7.38;2.40;;;14.00;99.90;;;;;;5008980;28;20041;-53
2023/07/25 00:10:36;;;;;;;6.60;2.05;;;14.00;99.90;;;;;;5006680;28;20092;-52
2023/07/25 00:13:02;;;;;;;10.73;2.47;;;14.00;99.90;;;;;;5005540;28;20034;-55
2023/07/25 00:15:28;;;;;;;8.80;2.95;;;14.00;99.90;;;;;;5010844;28;20038;-51
2023/07/25 00:17:53;;;;;;;7.28;2.47;;;14.00;99.90;;;;;;4990976;28;20126;-53
2023/07/25 00:20:19;;;;;;;9.55;2.50;;;14.00;99.90;;;;;;5004624;28;20142;-51
2023/07/25 00:22:45;;;;;;;9.95;2.55;;;14.00;99.90;;;;;;4994193;28;20050;-52
2023/07/25 00:25:11;;;;;;;8.63;2.75;;;14.00;99.90;;;;;;4971631;28;20037;-51
2023/07/25 00:27:36;;;;;;;9.77;2.40;;;14.00;99.90;;;;;;4989887;28;20516;-54
2023/07/25 00:30:04;;;;;;;12.93;3.00;;;14.10;99.90;;;;;;4993632;28;20520;-52
2023/07/25 00:32:30;;;;;;;12.32;2.65;;;14.10;99.90;;;;;;5005831;28;20050;-51
2023/07/25 00:34:55;;;;;;;12.38;3.53;;;14.10;99.90;;;;;;4976274;28;20060;-53
2023/07/25 00:37:41;;;;;;;8.02;2.83;;;14.20;99.90;;;;;;4976114;28;20089;-52
2023/07/25 00:40:08;;;;;;;9.43;3.13;;;14.20;99.90;;;;;;5000370;28;20161;-52
2023/07/25 00:42:33;;;;;;;7.22;2.42;;;14.20;99.90;;;;;;5005979;28;20091;-54
2023/07/25 00:44:59;;;;;;;9.15;3.00;;;14.20;99.90;;;;;;4993932;28;20042;-53
2023/07/25 00:47:25;;;;;;;12.25;2.60;;;14.20;99.90;;;;;;4987714;28;20056;-55
2023/07/25 00:49:52;;;;;;;11.05;2.92;;;14.20;99.90;;;;;;5005562;28;20061;-52
2023/07/25 00:52:18;;;;;;;10.40;2.70;;;14.20;99.90;;;;;;4979591;28;20038;-52
2023/07/25 00:54:49;;;;;;;8.88;2.70;;;14.20;99.90;;;;;;4990421;28;20041;-54
2023/07/25 00:57:19;;;;;;;7.88;2.65;;;14.20;99.90;;;;;;4980864;28;20559;-51
2023/07/25 00:59:45;;;;;;;7.05;2.40;;;14.20;99.90;;;;;;4993594;28;20520;-52
2023/07/25 01:02:13;;;;;;;6.35;3.05;;;14.20;99.90;;;;;;5003217;28;20486;-51
2023/07/25 01:05:26;;;;;;;9.35;2.70;;;14.20;99.90;;;;;;4999299;28;20049;-51
2023/07/25 01:07:52;;;;;;;10.20;2.53;;;14.20;99.90;;;;;;4986372;28;20081;-51
2023/07/25 01:10:17;;;;;;;6.30;2.42;;;14.10;99.90;;;;;;4991689;28;20045;-53
2023/07/25 01:12:43;;;;;;;6.28;2.72;;;14.10;99.90;;;;;;4995452;28;20026;-52
2023/07/25 01:15:09;;;;;;;6.57;2.80;;;14.10;99.90;;;;;;5017473;28;20044;-52
2023/07/25 01:17:35;;;;;;;10.15;2.83;;;14.10;99.90;;;;;;4991542;28;20061;-53
2023/07/25 01:20:00;;;;;;;7.15;2.70;;;14.10;99.90;;;;;;5007993;28;20112;-52
2023/07/25 01:22:27;;;;;;;6.40;2.33;;;14.00;99.90;;;;;;4979763;28;20081;-53
2023/07/25 01:24:55;;;;;;;9.75;2.63;;;14.00;99.90;;;;;;4992108;28;20034;-53
2023/07/25 01:27:20;;;;;;;5.60;1.90;;;14.00;99.90;;;;;;4998381;28;20037;-52
2023/07/25 01:29:46;;;;;;;6.43;2.30;;;14.00;99.90;;;;;;4996703;28;20564;-52
2023/07/25 01:32:12;;;;;;;4.95;2.28;;;14.00;99.90;;;;;;4994431;28;20045;-52
2023/07/25 01:34:38;;;;;;;9.63;2.92;;;14.00;99.90;;;;;;5007101;28;20500;-53
2023/07/25 01:37:06;;;;;;;7.22;2.45;;;14.00;99.90;;;;;;4990752;28;20049;-51
2023/07/25 01:39:31;;;;;;;11.38;3.30;;;14.00;99.90;;;;;;4988699;28;20037;-53
2023/07/25 01:41:57;;;;;;;14.57;3.15;;;14.00;99.90;;;;;;4987379;28;20034;-52
2023/07/25 01:44:23;;;;;;;11.45;2.65;;;14.00;99.90;;;;;;4979616;28;20684;-52
2023/07/25 01:46:48;;;;;;;11.75;3.30;;;14.00;99.90;;;;;;4979062;28;20038;-52
2023/07/25 01:49:14;;;;;;;9.35;2.85;;;14.00;99.90;;;;;;4989931;28;20042;-56
2023/07/25 01:51:40;;;;;;;6.05;2.40;;;14.00;99.90;;;;;;5009979;28;20037;-51
2023/07/25 01:54:06;;;;;;;9.57;2.67;;;14.00;99.90;;;;;;4990117;28;20047;-51
2023/07/25 01:56:31;;;;;;;7.05;2.58;;;14.00;99.90;;;;;;4974979;28;20045;-51
2023/07/25 01:58:57;;;;;;;10.20;2.67;;;14.00;99.90;;;;;;5003829;28;20049;-51
2023/07/25 02:01:23;;;;;;;9.52;2.72;;;14.00;99.90;;;;;;4970378;28;20042;-53
2023/07/25 02:03:49;;;;;;;12.18;3.50;;;13.90;99.90;;;;;;5007396;28;20034;-52
2023/07/25 02:06:15;;;;;;;7.50;2.85;;;14.00;99.90;;;;;;4977255;28;20504;-52
2023/07/25 02:08:40;;;;;;;8.32;2.42;;;14.00;99.90;;;;;;4972281;28;20046;-52
2023/07/25 02:11:06;;;;;;;10.15;2.60;;;14.00;99.90;;;;;;4989043;28;20085;-51
2023/07/25 02:13:32;;;;;;;8.80;2.40;;;13.90;99.90;;;;;;4986308;28;20044;-53
2023/07/25 02:15:57;;;;;;;6.55;2.83;;;13.90;99.90;;;;;;4987686;28;20409;-54
2023/07/25 02:18:23;;;;;;;11.40;2.60;;;14.00;99.90;;;;;;4987919;28;20045;-51
2023/07/25 02:20:49;;;;;;;10.20;2.75;;;13.90;99.90;;;;;;5004534;28;20269;-53
2023/07/25 02:23:15;;;;;;;9.45;2.65;;;14.00;99.90;;;;;;5007551;28;20041;-52
2023/07/25 02:25:40;;;;;;;10.52;2.55;;;14.00;99.90;;;;;;5000759;28;20045;-53
2023/07/25 02:28:06;;;;;;;7.82;2.25;;;14.00;99.90;;;;;;4993824;28;20045;-54
2023/07/25 02:30:32;;;;;;;12.50;2.47;;;14.00;99.90;;;;;;4991626;28;20104;-52
2023/07/25 02:32:57;;;;;;;6.80;2.20;;;14.00;99.90;;;;;;4992462;28;20042;-52
2023/07/25 02:35:23;;;;;;;13.35;2.60;;;14.00;99.90;;;;;;4990862;28;20134;-52
2023/07/25 02:38:29;;;;;;;9.60;2.40;;;14.00;99.90;;;;;;4988062;28;20060;-51
2023/07/25 02:40:55;;;;;;;10.82;3.03;;;14.00;99.90;;;;;;5002094;28;20037;-54
2023/07/25 02:43:22;;;;;;;5.18;2.22;;;14.00;99.90;;;;;;5005477;28;20404;-52
2023/07/25 02:45:49;;;;;;;8.52;2.60;;;14.00;99.90;;;;;;5005824;28;20033;-52
2023/07/25 02:48:15;;;;;;;7.00;2.20;;;14.00;99.90;;;;;;4981780;28;20046;-54
2023/07/25 02:50:41;;;;;;;12.27;3.58;;;14.00;99.90;;;;;;4973601;28;20076;-53
2023/07/25 02:53:07;;;;;;;9.35;3.20;;;14.00;99.90;;;;;;5004727;28;20473;-51
2023/07/25 02:55:32;;;;;;;11.30;2.70;;;13.90;99.90;;;;;;4981569;28;20054;-55
2023/07/25 02:57:58;;;;;;;8.88;2.97;;;13.90;99.90;;;;;;4984793;28;20042;-54
2023/07/25 03:00:24;;;;;;;3.78;2.05;;;13.90;99.90;;;;;;4971635;28;20560;-51
2023/07/25 03:02:50;;;;;;;8.30;2.42;;;13.90;99.90;;;;;;5008605;28;20037;-52
2023/07/25 03:05:16;;;;;;;8.23;2.70;;;13.80;99.90;;;;;;4974351;28;20053;-51
2023/07/25 03:07:42;;;;;;;13.63;2.78;;;13.80;99.90;;;;;;4997047;28;20090;-53
2023/07/25 03:10:09;;;;;;;11.05;3.30;;;13.80;99.90;;;;;;4974027;28;20061;-52
2023/07/25 03:12:34;;;;;;;8.90;2.70;;;13.80;99.90;;;;;;4989700;28;20042;-55
2023/07/25 03:15:01;;;;;;;10.27;2.50;;;13.70;99.90;;;;;;5003297;28;20627;-52
2023/07/25 03:17:27;;;;;;;7.68;2.25;;;13.70;99.90;;;;;;4986117;28;20045;-52
2023/07/25 03:19:53;;;;;;;7.82;2.40;;;13.70;99.90;;;;;;5008719;28;20444;-51
2023/07/25 03:22:19;;;;;;;8.90;2.50;;;13.60;99.90;;;;;;5010340;28;20117;-52
2023/07/25 03:24:45;;;;;;;9.52;2.28;;;13.60;99.90;;;;;;4999339;28;20033;-53
2023/07/25 03:27:11;;;;;;;6.22;2.28;;;13.60;99.90;;;;;;4984037;28;20409;-54
2023/07/25 03:29:37;;;;;;;7.82;2.20;;;13.60;99.90;;;;;;5006813;28;20038;-53
2023/07/25 03:32:03;;;;;;;9.18;2.67;;;13.60;99.90;;;;;;4990055;28;20332;-51
2023/07/25 03:34:28;;;;;;;7.80;2.05;;;13.50;99.90;;;;;;4984885;28;20116;-52
2023/07/25 03:36:54;;;;;;;8.88;1.95;;;13.50;99.90;;;;;;4961786;28;20066;-52
2023/07/25 03:39:20;;;;;;;5.53;2.30;;;13.50;99.90;;;;;;4984059;28;20174;-52
2023/07/25 03:41:46;;;;;;;11.00;2.72;;;13.40;99.90;;;;;;5010038;28;20037;-53
2023/07/25 03:44:17;;;;;;;8.73;2.47;;;13.40;99.90;;;;;;4990738;28;20477;-53
2023/07/25 03:46:44;;;;;;;7.00;2.10;;;13.40;99.90;;;;;;4997133;28;20104;-51
2023/07/25 03:49:10;;;;;;;8.30;1.90;;;13.40;99.90;;;;;;4971610;28;20041;-51
2023/07/25 03:51:36;;;;;;;8.10;2.35;;;13.40;99.90;;;;;;5005062;28;20051;-54
2023/07/25 03:54:06;;;;;;;6.78;2.13;;;13.40;99.90;;;;;;4980362;28;20492;-51
2023/07/25 03:56:32;;;;;;;10.38;2.75;;;13.40;99.90;;;;;;5004538;28;20034;-51
2023/07/25 03:58:58;;;;;;;5.80;2.33;;;13.40;99.90;;;;;;5002991;28;20049;-51
2023/07/25 04:01:24;;;;;;;6.88;2.17;;;13.30;99.90;;;;;;4979347;28;20048;-52
2023/07/25 04:03:50;;;;;;;8.88;2.33;;;13.30;99.90;;;;;;5000196;28;20042;-52
2023/07/25 04:06:15;;;;;;;8.48;2.10;;;13.30;99.90;;;;;;4969378;28;20544;-52
2023/07/25 04:08:41;;;;;;;9.80;2.08;;;13.20;99.90;;;;;;4984141;28;20050;-52
2023/07/25 04:11:07;;;;;;;9.07;2.22;;;13.20;99.90;;;;;;4983529;28;20449;-53
2023/07/25 04:13:32;;;;;;;12.23;2.47;;;13.20;99.90;;;;;;4989937;28;20045;-52
2023/07/25 04:15:58;;;;;;;8.75;2.08;;;13.20;99.90;;;;;;4982266;28;20053;-51
2023/07/25 04:18:24;;;;;;;8.88;2.05;;;13.20;99.90;;;;;;5034218;23;20517;-52
2023/07/25 04:20:49;;;;;;;6.93;2.42;;;13.20;99.90;;;;;;5039161;28;20041;-53
2023/07/25 04:23:15;;;;;;;9.20;3.03;;;13.20;99.90;;;;;;5039825;28;20513;-52
2023/07/25 04:25:41;;;;;;;12.02;3.22;;;13.20;99.90;;;;;;5044496;28;20041;-55
2023/07/25 04:28:07;;;;;;;10.90;2.92;;;13.20;99.90;;;;;;5029749;28;20044;-55
2023/07/25 04:30:33;;;;;;;12.68;2.70;;;13.20;99.90;;;;;;5026760;28;20029;-53
2023/07/25 04:32:59;;;;;;;6.55;2.17;;;13.20;99.90;;;;;;5041694;28;20052;-53
2023/07/25 04:35:25;;;;;;;6.18;2.15;;;13.20;99.90;;;;;;5033998;28;20040;-53
2023/07/25 04:37:50;;;;;;;8.30;2.78;;;13.20;99.90;;;;;;5002012;28;20095;-52
2023/07/25 04:40:16;;;;;;;7.50;2.15;;;13.30;99.90;;;;;;5022870;28;20077;-51
2023/07/25 04:42:42;;;;;;;8.20;2.53;;;13.30;99.90;;;;;;5026189;28;20631;-51
2023/07/25 04:45:08;;;;;;;8.05;2.55;;;13.30;99.90;;;;;;5008388;28;20061;-51
2023/07/25 04:47:34;;;;;;;9.93;2.58;;;13.30;99.90;;;;;;5034840;28;20071;-51
2023/07/25 04:50:00;;;;;;;6.03;2.20;;;13.40;99.90;;;;;;5030813;28;20037;-52
2023/07/25 04:52:26;;;;;;;8.38;2.00;;;13.30;99.90;;;;;;5015291;28;20238;-55
2023/07/25 04:54:57;;;;;;;13.80;2.22;;;13.40;99.90;;;;;;5043327;28;20120;-54
2023/07/25 04:57:26;;;;;;;9.23;2.13;;;13.30;99.90;;;;;;5031150;28;20120;-52
2023/07/25 04:59:52;;;;;;;8.10;1.63;;;13.30;99.90;;;;;;5043412;28;20110;-52
2023/07/25 05:02:19;;;;;;;6.20;1.45;;;13.40;99.90;;;;;;5043928;28;20029;-53
2023/07/25 05:04:45;;;;;;;5.97;1.85;;;13.40;99.90;;;;;;5010046;28;20033;-52
2023/07/25 05:07:12;;;;;;;6.18;1.85;;;13.50;99.90;;;;;;5030781;28;20531;-53
2023/07/25 05:09:38;;;;;;;8.00;1.83;;;13.50;99.90;;;;;;5026076;28;20068;-54
2023/07/25 05:12:04;;;;;;;8.65;1.85;;;13.50;99.90;;;;;;5016082;28;20033;-54
2023/07/25 05:14:30;;;;;;;3.60;1.55;;;13.60;99.90;;;;;;5045698;28;20060;-52
2023/07/25 05:16:56;;;;;;;8.32;2.17;;;13.70;99.90;;;;;;5018619;28;20044;-54
2023/07/25 05:19:24;;;;;;;7.85;1.92;;;13.70;99.90;;;;;;5008676;28;20589;-54
2023/07/25 05:21:50;;;;;;;11.15;2.63;;;13.80;99.90;;;;;;5031315;28;20484;-54
2023/07/25 05:24:15;;;;;;;5.25;1.40;;;13.80;99.90;;;;;;5035444;28;20059;-52
2023/07/25 05:26:41;;;;;;;9.95;2.88;;;13.90;99.90;;;;;;5032141;28;20044;-52
2023/07/25 05:29:07;;;;;;;5.63;1.40;;;13.90;99.90;;;;;;5026240;28;20076;-54
2023/07/25 05:31:33;;;;;;;7.57;2.17;;;14.00;99.90;;;;;;5013861;28;20040;-54
2023/07/25 05:33:59;;;;;;;7.60;1.67;;;14.00;99.90;;;;;;5014886;28;20047;-53
2023/07/25 05:37:06;;;;;;;8.93;2.38;;;14.10;99.90;;;;;;5027428;28;20037;-54
2023/07/25 05:39:33;;;;;;;7.93;1.60;;;14.10;99.90;;;;;;5023258;28;20072;-54
2023/07/25 05:41:59;;;;;;;7.32;1.23;;;14.20;99.90;;;;;;5031734;28;20037;-53
2023/07/25 05:44:29;;;;;;;4.43;1.80;;;14.20;99.90;;;;;;5026161;28;20033;-56
2023/07/25 05:46:54;;;;;;;7.50;1.70;;;14.20;99.90;;;;;;5030344;28;20045;-56
2023/07/25 05:49:20;;;;;;;8.10;1.10;;;14.30;99.90;;;;;;5013390;28;20043;-52
2023/07/25 05:51:46;;;;;;;7.90;1.33;;;14.40;99.90;;;;;;5045310;28;20036;-51
2023/07/25 05:54:15;;;;;;;3.38;0.90;;;14.40;99.90;;;;;;5005752;28;20073;-54
2023/07/25 05:56:41;;;;;;;4.78;1.17;;;14.50;99.90;;;;;;5011604;28;20044;-54
2023/07/25 05:59:07;;;;;;;6.90;1.00;;;14.50;99.90;;;;;;5042477;28;20384;-56
2023/07/25 06:01:32;;;;;;;5.70;1.00;;;14.60;99.90;;;;;;5026509;28;20045;-53
2023/07/25 06:03:58;;;;;;;6.25;1.10;;;14.70;99.90;;;;;;5028661;28;20139;-53
2023/07/25 06:06:24;;;;;;;4.32;0.90;;;14.80;99.90;;;;;;5032168;28;20040;-51
2023/07/25 06:08:49;;;;;;;6.90;1.15;;;14.90;99.90;;;;;;5026603;28;20049;-52
2023/07/25 06:11:21;;;;;;;2.80;0.80;;;15.00;99.90;;;;;;5007574;28;20044;-53
2023/07/25 06:13:49;;;;;;;6.18;1.63;;;15.10;99.90;;;;;;5007735;28;20090;-56
2023/07/25 06:16:15;;;;;;;5.30;1.08;;;15.10;99.90;;;;;;5027277;28;20113;-57
2023/07/25 06:18:41;;;;;;;6.30;0.82;;;15.20;99.90;;;;;;5013467;28;20091;-53
2023/07/25 06:21:06;;;;;;;5.47;1.20;;;15.30;99.90;;;;;;5012062;28;20427;-52
2023/07/25 06:23:32;;;;;;;6.20;1.40;;;15.40;99.90;;;;;;4994440;28;20503;-51
2023/07/25 06:25:58;;;;;;;6.97;0.80;;;15.40;99.90;;;;;;5035655;28;20471;-54
2023/07/25 06:28:24;;;;;;;3.38;0.70;;;15.40;99.90;;;;;;5025069;28;20507;-57
2023/07/25 06:30:50;;;;;;;3.53;0.88;;;15.40;99.90;;;;;;5030230;28;20082;-54
2023/07/25 06:33:15;;;;;;;8.55;1.20;;;15.50;99.90;;;;;;5028351;28;20033;-54
2023/07/25 06:35:41;;;;;;;5.53;1.10;;;15.60;99.90;;;;;;5009392;28;20115;-54
2023/07/25 06:38:07;;;;;;;4.97;1.02;;;15.70;99.90;;;;;;5020876;28;20479;-54
2023/07/25 06:40:33;;;;;;;3.25;1.10;;;15.70;99.90;;;;;;5034948;28;20049;-54
2023/07/25 06:42:58;;;;;;;3.88;1.08;;;15.90;99.90;;;;;;5028644;28;20140;-57
2023/07/25 06:45:24;;;;;;;4.65;1.00;;;15.90;99.90;;;;;;5023963;28;20076;-56
2023/07/25 06:47:50;;;;;;;4.38;0.88;;;16.00;99.90;;;;;;5020992;28;20495;-54
2023/07/25 06:50:15;;;;;;;4.60;0.98;;;15.90;99.90;;;;;;4997349;28;20045;-54
2023/07/25 06:52:41;;;;;;;3.63;0.85;;;15.90;99.90;;;;;;5028762;28;20037;-54
2023/07/25 06:55:08;;;;;;;8.80;1.80;;;15.90;99.90;;;;;;5031259;28;20036;-53
2023/07/25 06:57:34;;;;;;;6.55;1.60;;;15.90;99.90;;;;;;5026974;28;20103;-56
2023/07/25 07:00:00;;;;;;;7.30;0.95;;;15.90;99.90;;;;;;5025751;28;20041;-56
2023/07/25 07:02:25;;;;;;;6.35;1.48;;;16.00;99.90;;;;;;5021773;28;20609;-55
2023/07/25 07:05:05;;;;;;;5.90;1.00;;;16.00;99.90;;;;;;5032778;28;20033;-54
2023/07/25 07:07:31;;;;;;;6.20;1.35;;;16.10;99.90;;;;;;5022907;28;20041;-54
2023/07/25 07:09:57;;;;;;;4.13;0.82;;;16.20;99.90;;;;;;5005953;28;20098;-56
2023/07/25 07:12:22;;;;;;;8.15;1.08;;;16.20;99.90;;;;;;5028066;28;20142;-57
2023/07/25 07:14:48;;;;;;;5.80;1.33;;;16.20;99.90;;;;;;5037133;28;20048;-54
2023/07/25 07:17:21;;;;;;;4.78;0.70;;;16.30;99.90;;;;;;5023836;28;20451;-55
2023/07/25 07:19:47;;;;;;;4.10;0.80;;;16.30;99.90;;;;;;5025644;28;20051;-54
2023/07/25 07:22:13;;;;;;;6.82;1.02;;;16.40;99.90;;;;;;5023372;28;20041;-54
2023/07/25 07:24:39;;;;;;;6.57;1.00;;;16.50;99.90;;;;;;5039993;28;20037;-57
2023/07/25 07:27:05;;;;;;;2.22;0.90;;;16.60;99.90;;;;;;5023708;28;20047;-56
2023/07/25 07:29:31;;;;;;;8.25;1.20;;;16.60;99.90;;;;;;5016769;28;20053;-54
2023/07/25 07:31:56;;;;;;;6.95;1.33;;;16.50;99.90;;;;;;5028371;28;20040;-54
2023/07/25 07:34:22;;;;;;;7.47;1.23;;;16.50;99.90;;;;;;5022179;28;20132;-55
2023/07/25 07:36:48;;;;;;;6.25;1.08;;;16.40;99.90;;;;;;5037582;28;20076;-54
2023/07/25 07:39:14;;;;;;;5.25;1.13;;;16.40;99.90;;;;;;5028395;28;20049;-58
2023/07/25 07:41:39;;;;;;;4.65;1.30;;;16.50;99.90;;;;;;5021222;28;20033;-57
2023/07/25 07:44:05;;;;;;;5.60;1.52;;;16.60;99.90;;;;;;5005703;28;20075;-55
2023/07/25 07:46:32;;;;;;;6.75;1.23;;;16.70;99.90;;;;;;5019724;28;20050;-54
2023/07/25 07:48:58;;;;;;;7.47;1.55;;;16.70;99.90;;;;;;5014238;28;20071;-55
2023/07/25 07:51:25;;;;;;;3.35;0.82;;;16.80;99.90;;;;;;5036134;28;20107;-54
2023/07/25 07:53:51;;;;;;;7.13;1.42;;;17.00;99.90;;;;;;5020098;28;20040;-56
2023/07/25 07:56:17;;;;;;;6.25;1.00;;;17.10;99.90;;;;;;5019943;28;20040;-57
2023/07/25 07:58:42;;;;;;;6.03;1.38;;;17.30;99.90;;;;;;5042497;28;20041;-55
2023/07/25 08:01:19;;;;;;;5.80;1.10;;;17.10;99.90;;;;;;5007988;28;20075;-55
2023/07/25 08:03:46;;;;;;;3.55;1.02;;;17.00;99.90;;;;;;5019255;28;20046;-51
2023/07/25 08:06:11;;;;;;;5.97;1.13;;;16.90;99.90;;;;;;5012982;28;20048;-55
2023/07/25 08:08:38;;;;;;;5.95;1.40;;;16.90;99.90;;;;;;5021619;28;20053;-58
2023/07/25 08:11:03;;;;;;;6.13;1.05;;;16.90;99.80;;;;;;5037492;28;20053;-56
2023/07/25 08:13:29;;;;;;;4.72;0.95;;;16.70;99.90;;;;;;5021095;28;20053;-55
2023/07/25 08:15:55;;;;;;;3.08;0.90;;;16.90;99.90;;;;;;5033211;28;20037;-55
2023/07/25 08:18:20;;;;;;;4.03;0.90;;;17.10;99.90;;;;;;5019816;28;20064;-55
2023/07/25 08:20:46;;;;;;;3.90;0.95;;;17.30;99.90;;;;;;5001813;28;20037;-55
2023/07/25 08:23:12;;;;;;;5.07;0.93;;;17.40;99.90;;;;;;5026642;28;20033;-57
2023/07/25 08:25:39;;;;;;;4.38;1.35;;;17.40;99.40;;;;;;5025015;28;20041;-58
2023/07/25 08:28:05;;;;;;;4.05;0.80;;;17.20;98.70;;;;;;5009401;28;20046;-55
2023/07/25 08:30:31;;;;;;;3.83;0.98;;;17.00;99.10;;;;;;5045233;28;20091;-55
2023/07/25 08:33:12;;;;;;;4.25;1.00;;;17.10;99.30;;;;;;5046134;28;20037;-53
2023/07/25 08:35:38;;;;;;;3.95;1.13;;;17.20;99.30;;;;;;5040024;28;20043;-56
2023/07/25 08:38:04;;;;;;;6.50;1.27;;;17.20;99.20;;;;;;5030677;28;20475;-58
2023/07/25 08:40:30;;;;;;;6.25;1.00;;;17.20;99.90;;;;;;5008685;28;20037;-54
2023/07/25 08:43:02;;;;;;;5.70;1.08;;;17.20;99.90;;;;;;5049421;28;20075;-55
2023/07/25 08:45:28;;;;;;;6.57;1.20;;;17.20;99.90;;;;;;5042617;28;20163;-55
2023/07/25 08:47:58;;;;;;;7.28;1.40;;;17.20;99.90;;;;;;5029329;28;20040;-53
2023/07/25 08:50:27;;;;;;;6.13;1.80;;;17.30;99.90;;;;;;5052144;28;20530;-57
2023/07/25 08:52:55;;;;;;;6.05;1.55;;;17.50;99.90;;;;;;5039261;28;20043;-51
2023/07/25 08:55:21;;;;;;;5.95;1.20;;;17.50;99.90;;;;;;5046909;28;20041;-54
2023/07/25 08:57:48;;;;;;;3.70;1.27;;;17.60;99.90;;;;;;5017583;28;20052;-51
2023/07/25 09:00:14;;;;;;;6.90;1.58;;;17.60;99.00;;;;;;5044141;28;20044;-54
2023/07/25 09:02:40;;;;;;;7.95;1.17;;;17.30;98.80;;;;;;5020872;28;20049;-56
2023/07/25 09:05:06;;;;;;;5.93;1.40;;;17.20;98.50;;;;;;5015403;28;20045;-52
2023/07/25 09:07:32;;;;;;;2.92;0.95;;;17.20;99.10;;;;;;5011420;28;20584;-53
2023/07/25 09:09:58;;;;;;;7.65;1.50;;;17.30;99.60;;;;;;5009532;28;20045;-52
2023/07/25 09:12:25;;;;;;;3.95;1.10;;;17.40;99.50;;;;;;5039450;28;20400;-51
2023/07/25 09:14:53;;;;;;;5.40;1.20;;;17.60;99.10;;;;;;5028729;28;20037;-53
2023/07/25 09:17:19;;;;;;;3.25;0.98;;;17.70;98.20;;;;;;5006935;28;20373;-57
2023/07/25 09:19:47;;;;;;;7.57;1.20;;;17.60;98.10;;;;;;5017098;28;20064;-56
2023/07/25 09:22:29;;;;;;;4.65;1.08;;;17.70;98.70;;;;;;5008157;28;20338;-53
2023/07/25 09:24:55;;;;;;;6.57;1.25;;;17.70;97.90;;;;;;5023131;28;20514;-53
2023/07/25 09:27:21;;;;;;;3.15;1.00;;;17.70;97.50;;;;;;5027143;28;20103;-57
2023/07/25 09:29:50;;;;;;;4.60;1.00;;;17.70;97.90;;;;;;5009502;28;20810;-56
2023/07/25 09:32:24;;;;;;;5.50;1.05;;;17.80;97.20;;;;;;5031132;28;20060;-53
2023/07/25 09:35:05;;;;;;;4.50;1.17;;;17.90;97.40;;;;;;5021642;28;20138;-53
2023/07/25 09:37:31;;;;;;;6.95;2.10;;;17.90;97.30;;;;;;5023526;28;20092;-56
2023/07/25 09:39:57;;;;;;;4.90;1.30;;;18.00;97.60;;;;;;5050427;28;20474;-56
2023/07/25 09:42:25;;;;;;;4.68;1.42;;;18.10;97.70;;;;;;5037806;28;20085;-51
2023/07/25 09:44:52;;;;;;;5.68;1.15;;;18.30;97.60;;;;;;5021871;28;20059;-52
2023/07/25 09:47:22;;;;;;;2.75;0.70;;;18.50;97.60;;;;;;5019905;28;20037;-54
2023/07/25 09:49:49;;;;;;;3.92;1.08;;;18.50;97.60;;;;;;5039606;28;20041;-54
2023/07/25 09:52:16;;;;;;;7.75;1.30;;;18.50;97.30;;;;;;5014681;28;20033;-58
2023/07/25 09:54:41;;;;;;;6.72;1.20;;;18.60;97.50;;;;;;5040024;28;20483;-53
2023/07/25 09:57:08;;;;;;;3.42;1.30;;;18.80;97.00;;;;;;5022485;28;20120;-51
2023/07/25 09:59:37;;;;;;;4.18;1.38;;;19.00;96.70;;;;;;5025093;28;20511;-51
2023/07/25 10:02:04;;;;;;;3.80;0.98;;;19.20;97.10;;;;;;5021897;28;20553;-51
2023/07/25 10:04:30;;;;;;;3.33;1.00;;;19.20;95.90;;;;;;5025929;28;20041;-54
2023/07/25 10:06:59;;;;;;;6.40;1.38;;;19.00;95.20;;;;;;5021316;28;20056;-55
2023/07/25 10:09:25;;;;;;;2.33;0.88;;;19.10;95.80;;;;;;5023055;28;20041;-53
2023/07/25 10:11:52;;;;;;;4.15;1.17;;;19.20;94.90;;;;;;5024245;28;20135;-50
2023/07/25 10:14:19;;;;;;;2.47;0.90;;;19.20;95.20;;;;;;5025329;28;20495;-50
2023/07/25 10:16:46;;;;;;;6.43;1.58;;;19.10;96.10;;;;;;5029262;28;20068;-53
2023/07/25 10:19:11;;;;;;;4.00;1.00;;;19.10;96.20;;;;;;5025135;28;20045;-58
2023/07/25 10:21:49;;;;;;;4.18;1.00;;;18.80;95.10;;;;;;5043411;28;20052;-57
2023/07/25 10:24:15;;;;;;;5.90;1.33;;;18.40;95.70;;;;;;5027584;28;20058;-53
2023/07/25 10:27:00;;;;;;;5.20;0.98;;;18.20;96.40;;;;;;5043244;28;20043;-55
2023/07/25 10:29:49;;;;;;;5.30;1.15;;;18.20;96.90;;;;;;5026178;28;20045;-57
2023/07/25 10:32:17;;;;;;;6.00;1.48;;;18.10;96.50;;;;;;5025878;28;20056;-53
2023/07/25 10:34:51;;;;;;;3.25;1.08;;;18.20;96.40;;;;;;5023332;28;20106;-55
2023/07/25 10:37:29;;;;;;;7.15;1.38;;;18.20;96.40;;;;;;5028117;28;20033;-57
2023/07/25 10:40:04;;;;;;;4.07;1.08;;;18.10;95.60;;;;;;5026784;28;20508;-54
2023/07/25 10:42:44;;;;;;;2.42;1.00;;;17.90;95.40;;;;;;5040341;28;20597;-52
2023/07/25 10:45:29;;;;;;;4.78;1.10;;;18.00;96.70;;;;;;5033851;28;20044;-57
2023/07/25 10:47:59;;;;;;;4.38;1.10;;;18.20;96.60;;;;;;5051529;28;20541;-55
2023/07/25 10:50:47;;;;;;;2.60;1.10;;;18.20;96.90;;;;;;5030316;28;20088;-56
2023/07/25 10:53:20;;;;;;;7.47;1.35;;;18.20;96.80;;;;;;5036574;28;20053;-58
2023/07/25 10:56:04;;;;;;;5.57;1.30;;;18.30;97.30;;;;;;5025372;28;20033;-55
2023/07/25 10:58:34;;;;;;;;;;;18.40;97.30;;;;;;5027100;28;20130;-54
2023/07/25 11:01:01;;;;;;;3.20;1.15;;;18.30;96.50;;;;;;5043776;28;19923;-58
2023/07/25 11:03:32;;;;;;;2.63;0.70;;;18.20;97.40;;;;;;5029961;28;20044;-55
2023/07/25 11:06:07;;;;;;;4.20;1.02;;;18.10;97.70;;;;;;5027864;28;20519;-55
2023/07/25 11:08:33;;;;;;;5.22;1.05;;;18.10;98.10;;;;;;5044749;28;20041;-55
2023/07/25 11:11:04;;;;;;;3.47;0.98;;;18.20;98.30;;;;;;5019357;28;20048;-61
2023/07/25 11:13:32;;;;;;;3.92;1.00;;;18.30;98.30;;;;;;5042687;28;20044;-57
2023/07/25 11:16:01;;;;;;;7.15;1.05;;;18.30;98.10;;;;;;5042663;28;20076;-55
2023/07/25 11:18:27;;;;;;;4.57;0.95;;;18.20;97.70;;;;;;5026694;28;20047;-55
2023/07/25 11:20:59;;;;;;;2.97;0.82;;;17.90;97.20;;;;;;5028399;28;20404;-55
2023/07/25 11:23:25;;;;;;;3.67;0.70;;;17.90;97.60;;;;;;5010826;28;20040;-57
2023/07/25 11:25:55;;;;;;;3.60;0.80;;;18.00;97.60;;;;;;5044893;28;20040;-57
2023/07/25 11:28:21;;;;;;;4.00;0.80;;;18.10;97.70;;;;;;5041112;28;20082;-54
2023/07/25 11:30:47;;;;;;;5.00;1.70;;;18.30;97.30;;;;;;5044326;28;20719;-54
2023/07/25 11:33:13;;;;;;;5.22;1.02;;;18.50;97.00;;;;;;5033530;28;20044;-55
2023/07/25 11:35:38;;;;;;;3.20;1.00;;;18.50;96.50;;;;;;5049967;28;20033;-52
2023/07/25 11:38:04;;;;;;;3.47;1.15;;;18.50;96.90;;;;;;5040289;28;20037;-58
2023/07/25 11:40:31;;;;;;;3.70;0.82;;;18.50;96.00;;;;;;5026672;28;20048;-58
2023/07/25 11:42:57;;;;;;;3.17;0.98;;;18.30;96.30;;;;;;5025070;28;20053;-54
2023/07/25 11:45:24;;;;;;;6.35;1.00;;;18.20;96.40;;;;;;5027495;28;20049;-56
2023/07/25 11:47:51;;;;;;;4.88;0.98;;;18.10;97.00;;;;;;5020642;28;20139;-55
2023/07/25 11:50:18;;;;;;;3.95;1.00;;;17.90;97.50;;;;;;5045032;28;20033;-55
2023/07/25 11:52:46;;;;;;;6.13;1.88;;;17.70;98.30;;;;;;5013352;28;20174;-58
2023/07/25 11:55:13;;;;;;;4.40;1.40;;;17.70;99.30;;;;;;5006746;28;20041;-55
2023/07/25 11:57:43;;;;;;;8.63;1.40;;;17.50;99.40;;;;;;5029202;28;20047;-54
2023/07/25 12:00:15;;;;;;;4.53;1.30;;;17.50;99.70;;;;;;5012849;28;20040;-56
2023/07/25 12:02:42;;;;;;;4.88;1.42;;;17.50;99.90;;;;;;5017734;28;20070;-55
2023/07/25 12:05:09;;;;;;;6.40;1.40;;;17.40;99.90;;;;;;5035920;28;20036;-56
2023/07/25 12:07:51;;;;;;;7.10;1.80;;;17.40;99.90;;;;;;5046016;28;20095;-54
2023/07/25 12:10:32;;;;;;;5.50;1.60;;;17.40;99.90;;;;;;5040249;28;20080;-54
2023/07/25 12:13:00;;;;;;;4.97;1.50;;;17.30;99.90;;;;;;5044279;28;20069;-56
2023/07/25 12:15:46;;;;;;;5.65;1.27;;;17.20;99.90;;;;;;5028370;28;20120;-57
2023/07/25 12:18:28;;;;;;;6.10;1.40;;;17.50;99.90;;;;;;5048161;28;20048;-55
2023/07/25 12:21:26;;;;;;;4.90;1.40;;;17.70;99.90;;;;;;5030974;28;20047;-56
2023/07/25 12:23:53;;;;;;;3.50;1.55;;;18.00;99.90;;;;;;5029171;28;20116;-57
2023/07/25 12:26:20;;;;;;;3.95;1.00;;;18.20;99.90;;;;;;5031872;28;20045;-56
2023/07/25 12:28:47;;;;;;;8.98;1.50;;;18.00;99.90;;;;;;5014964;28;20361;-60
2023/07/25 12:31:13;;;;;;;6.90;1.25;;;18.20;99.90;;;;;;5046747;28;20834;-59
2023/07/25 12:33:45;;;;;;;7.80;1.60;;;18.50;99.90;;;;;;5015720;28;20043;-55
2023/07/25 12:36:11;;;;;;;5.93;1.63;;;18.60;99.90;;;;;;5029043;28;20534;-53
2023/07/25 12:38:37;;;;;;;14.82;2.42;;;18.60;99.90;;;;;;5027552;28;20450;-54
2023/07/25 12:41:03;;;;;;;6.78;1.30;;;18.70;99.90;;;;;;5045547;28;20075;-54
2023/07/25 12:43:29;;;;;;;4.68;1.27;;;18.60;99.90;;;;;;5027069;28;20044;-56
2023/07/25 12:45:55;;;;;;;8.40;1.30;;;18.50;99.90;;;;;;5033784;28;20047;-53
2023/07/25 12:48:21;;;;;;;4.25;0.90;;;18.20;99.90;;;;;;5045111;28;20032;-53